createdAt,value
2023-05-08T00:00:05.812Z,17.80
2023-05-08T00:02:32.470Z,17.80
2023-05-08T00:04:59.294Z,17.80
2023-05-08T00:07:26.030Z,17.80
2023-05-08T00:09:52.647Z,17.80
2023-05-08T00:12:19.241Z,17.80
2023-05-08T00:14:45.853Z,17.80
2023-05-08T00:17:12.524Z,17.80
2023-05-08T00:19:39.130Z,17.80
2023-05-08T00:22:05.734Z,17.70
2023-05-08T00:24:32.362Z,17.70
2023-05-08T00:26:58.990Z,17.70
2023-05-08T00:29:25.618Z,17.80
2023-05-08T00:31:52.448Z,17.70
2023-05-08T00:34:19.060Z,17.70
2023-05-08T00:36:45.677Z,17.60
2023-05-08T00:39:12.534Z,17.60
2023-05-08T00:41:39.345Z,17.60
2023-05-08T00:44:05.989Z,17.60
2023-05-08T00:46:32.821Z,17.60
2023-05-08T00:48:59.976Z,17.60
2023-05-08T00:51:27.816Z,17.50
2023-05-08T00:53:54.616Z,17.50
2023-05-08T00:56:22.487Z,17.50
2023-05-08T00:58:49.790Z,17.50
2023-05-08T01:01:16.945Z,17.50
2023-05-08T01:03:44.810Z,17.50
2023-05-08T01:06:11.628Z,17.60
2023-05-08T01:08:38.426Z,17.50
2023-05-08T01:11:15.174Z,17.50
2023-05-08T01:14:07.733Z,17.50
2023-05-08T01:16:52.525Z,17.50
2023-05-08T01:19:37.220Z,17.50
2023-05-08T01:22:15.698Z,17.40
2023-05-08T01:25:13.558Z,17.40
2023-05-08T01:28:12.133Z,17.40
2023-05-08T01:31:11.691Z,17.40
2023-05-08T01:34:22.896Z,17.40
2023-05-08T01:37:00.878Z,17.30
2023-05-08T01:39:50.010Z,17.30
2023-05-08T01:42:28.931Z,17.30
2023-05-08T01:45:03.327Z,17.30
2023-05-08T01:47:33.091Z,17.20
2023-05-08T01:50:08.917Z,17.20
2023-05-08T01:52:43.265Z,17.20
2023-05-08T01:55:13.974Z,17.10
2023-05-08T01:57:46.645Z,17.10
2023-05-08T02:00:17.149Z,17.10
2023-05-08T02:02:45.070Z,17.10
2023-05-08T02:05:14.124Z,17.10
2023-05-08T02:07:43.315Z,17.10
2023-05-08T02:10:11.553Z,17.00
2023-05-08T02:12:39.905Z,16.90
2023-05-08T02:15:09.127Z,16.90
2023-05-08T02:17:39.604Z,16.90
2023-05-08T02:20:07.708Z,17.00
2023-05-08T02:22:35.647Z,17.00
2023-05-08T02:25:03.345Z,17.10
2023-05-08T02:27:31.352Z,17.10
2023-05-08T02:30:00.541Z,17.00
2023-05-08T02:32:28.007Z,17.00
2023-05-08T02:35:02.981Z,16.90
2023-05-08T02:37:31.915Z,16.90
2023-05-08T02:40:01.332Z,16.90
2023-05-08T02:42:27.978Z,16.80
2023-05-08T02:44:54.596Z,16.80
2023-05-08T02:47:39.454Z,16.80
2023-05-08T02:50:11.517Z,16.80
2023-05-08T02:52:54.402Z,16.80
2023-05-08T02:55:34.629Z,16.80
2023-05-08T02:58:14.562Z,16.80
2023-05-08T03:00:56.678Z,16.80
2023-05-08T03:03:27.302Z,16.80
2023-05-08T03:05:56.667Z,16.80
2023-05-08T03:08:35.182Z,16.80
2023-05-08T03:11:08.295Z,16.80
2023-05-08T03:13:37.032Z,16.80
2023-05-08T03:16:06.423Z,16.80
2023-05-08T03:18:45.303Z,16.80
2023-05-08T03:21:13.490Z,16.80
2023-05-08T03:23:42.507Z,16.80
2023-05-08T03:26:10.477Z,16.80
2023-05-08T03:28:39.060Z,16.80
2023-05-08T03:31:06.835Z,16.80
2023-05-08T03:33:37.088Z,16.70
2023-05-08T03:36:03.965Z,16.80
2023-05-08T03:38:30.705Z,16.70
2023-05-08T03:40:59.523Z,16.90
2023-05-08T03:43:26.884Z,16.70
2023-05-08T03:45:55.256Z,16.80
2023-05-08T03:48:22.584Z,16.80
2023-05-08T03:50:50.436Z,16.70
2023-05-08T03:53:17.467Z,16.70
2023-05-08T03:55:44.198Z,16.70
2023-05-08T03:58:24.583Z,16.70
2023-05-08T04:01:01.863Z,16.60
2023-05-08T04:03:55.067Z,16.60
2023-05-08T04:06:49.874Z,16.60
2023-05-08T04:09:27.962Z,16.50
2023-05-08T04:12:06.879Z,16.50
2023-05-08T04:14:44.093Z,16.50
2023-05-08T04:17:14.315Z,16.50
2023-05-08T04:19:46.147Z,16.50
2023-05-08T04:22:14.162Z,16.50
2023-05-08T04:24:45.693Z,16.50
2023-05-08T04:27:13.487Z,16.50
2023-05-08T04:29:40.620Z,16.50
2023-05-08T04:32:08.380Z,16.50
2023-05-08T04:34:36.205Z,16.60
2023-05-08T04:37:03.564Z,16.50
2023-05-08T04:39:30.258Z,16.50
2023-05-08T04:42:02.559Z,16.50
2023-05-08T04:44:29.629Z,16.50
2023-05-08T04:46:56.469Z,16.50
2023-05-08T04:49:23.198Z,16.40
2023-05-08T04:51:49.833Z,16.40
2023-05-08T04:54:16.466Z,16.30
2023-05-08T04:56:43.042Z,16.30
2023-05-08T04:59:09.688Z,16.30
2023-05-08T05:01:36.342Z,16.30
2023-05-08T05:04:03.404Z,16.30
2023-05-08T05:06:31.166Z,16.30
2023-05-08T05:08:57.835Z,16.30
2023-05-08T05:11:24.684Z,16.40
2023-05-08T05:13:51.291Z,16.40
2023-05-08T05:16:17.999Z,16.40
2023-05-08T05:18:44.653Z,16.40
2023-05-08T05:21:11.440Z,16.40
2023-05-08T05:23:38.170Z,16.40
2023-05-08T05:26:04.936Z,16.40
2023-05-08T05:28:31.611Z,16.40
2023-05-08T05:30:58.411Z,16.40
2023-05-08T05:33:25.105Z,16.40
2023-05-08T05:35:51.688Z,16.40
2023-05-08T05:38:18.380Z,16.50
2023-05-08T05:40:44.990Z,16.50
2023-05-08T05:43:12.621Z,16.50
2023-05-08T05:45:40.280Z,16.50
2023-05-08T05:48:07.120Z,16.50
2023-05-08T05:50:33.814Z,16.50
2023-05-08T05:53:00.850Z,16.50
2023-05-08T05:55:27.570Z,16.50
2023-05-08T05:57:54.233Z,16.50
2023-05-08T06:00:21.484Z,16.50
2023-05-08T06:02:48.415Z,16.50
2023-05-08T06:05:15.224Z,16.50
2023-05-08T06:07:41.941Z,16.50
2023-05-08T06:10:09.227Z,16.40
2023-05-08T06:12:35.955Z,16.40
2023-05-08T06:15:03.069Z,16.40
2023-05-08T06:17:29.809Z,16.40
2023-05-08T06:19:56.588Z,16.40
2023-05-08T06:22:24.314Z,16.40
2023-05-08T06:24:54.590Z,16.40
2023-05-08T06:27:25.170Z,16.40
2023-05-08T06:29:53.184Z,16.40
2023-05-08T06:32:20.540Z,16.40
2023-05-08T06:34:47.561Z,16.40
2023-05-08T06:37:14.307Z,16.50
2023-05-08T06:39:40.945Z,16.50
2023-05-08T06:42:08.230Z,16.50
2023-05-08T06:44:35.917Z,16.50
2023-05-08T06:47:03.020Z,16.50
2023-05-08T06:49:29.972Z,16.50
2023-05-08T06:51:58.013Z,16.50
2023-05-08T06:54:25.026Z,16.50
2023-05-08T06:56:53.879Z,16.60
2023-05-08T06:59:23.153Z,16.60
2023-05-08T07:01:50.578Z,16.60
2023-05-08T07:04:17.417Z,16.70
2023-05-08T07:06:44.080Z,16.70
2023-05-08T07:09:12.127Z,16.70
2023-05-08T07:11:38.873Z,16.70
2023-05-08T07:14:05.554Z,16.80
2023-05-08T07:16:32.478Z,16.80
2023-05-08T07:18:59.264Z,16.80
2023-05-08T07:21:26.204Z,16.80
2023-05-08T07:23:53.747Z,16.80
2023-05-08T07:26:21.412Z,16.90
2023-05-08T07:28:48.491Z,16.90
2023-05-08T07:31:15.177Z,16.90
2023-05-08T07:33:41.887Z,16.90
2023-05-08T07:36:08.580Z,17.00
2023-05-08T07:38:36.575Z,17.00
2023-05-08T07:41:05.146Z,17.10
2023-05-08T07:43:32.179Z,17.00
2023-05-08T07:45:59.062Z,17.10
2023-05-08T07:48:25.898Z,17.10
2023-05-08T07:50:52.543Z,17.10
2023-05-08T07:53:19.245Z,17.10
2023-05-08T07:55:45.845Z,17.10
2023-05-08T07:58:12.481Z,17.20
2023-05-08T08:00:40.667Z,17.20
2023-05-08T08:03:07.696Z,17.30
2023-05-08T08:05:34.785Z,17.30
2023-05-08T08:08:01.555Z,17.30
2023-05-08T08:10:28.440Z,17.30
2023-05-08T08:12:55.137Z,17.30
2023-05-08T08:15:21.799Z,17.40
2023-05-08T08:17:48.955Z,17.40
2023-05-08T08:20:15.850Z,17.40
2023-05-08T08:22:42.511Z,17.40
2023-05-08T08:25:09.294Z,17.30
2023-05-08T08:27:35.938Z,17.30
2023-05-08T08:30:12.777Z,17.20
2023-05-08T08:32:43.300Z,17.30
2023-05-08T08:35:10.369Z,17.30
2023-05-08T08:37:37.105Z,17.40
2023-05-08T08:40:04.051Z,17.40
2023-05-08T08:42:31.592Z,17.40
2023-05-08T08:44:58.297Z,17.40
2023-05-08T08:47:34.633Z,17.40
2023-05-08T08:50:03.725Z,17.40
2023-05-08T08:52:37.135Z,17.40
2023-05-08T08:55:08.725Z,17.30
2023-05-08T08:57:39.015Z,17.30
2023-05-08T09:00:08.762Z,17.40
2023-05-08T09:02:35.882Z,17.40
2023-05-08T09:05:03.579Z,17.40
2023-05-08T09:07:30.471Z,17.40
2023-05-08T09:09:57.457Z,17.50
2023-05-08T09:12:24.220Z,17.50
2023-05-08T09:14:51.234Z,17.60
2023-05-08T09:17:17.846Z,17.70
2023-05-08T09:19:45.060Z,17.70
2023-05-08T09:22:12.420Z,17.70
2023-05-08T09:24:57.218Z,17.80
2023-05-08T09:27:25.932Z,17.80
2023-05-08T09:30:03.171Z,17.90
2023-05-08T09:32:31.470Z,17.90
2023-05-08T09:34:58.832Z,17.90
2023-05-08T09:37:26.837Z,18.00
2023-05-08T09:39:54.202Z,18.00
2023-05-08T09:42:21.021Z,18.00
2023-05-08T09:44:54.819Z,18.00
2023-05-08T09:47:23.777Z,18.00
2023-05-08T09:50:10.716Z,18.00
2023-05-08T09:52:38.781Z,18.20
2023-05-08T09:55:10.523Z,18.20
2023-05-08T09:57:40.303Z,18.20
2023-05-08T10:00:12.674Z,18.30
2023-05-08T10:02:42.210Z,18.40
2023-05-08T10:05:32.384Z,18.40
2023-05-08T10:08:18.487Z,18.50
2023-05-08T10:10:45.191Z,18.50
2023-05-08T10:13:11.970Z,18.50
2023-05-08T10:15:41.698Z,18.50
2023-05-08T10:18:09.368Z,18.50
2023-05-08T10:20:39.748Z,18.50
2023-05-08T10:23:11.416Z,18.60
2023-05-08T10:25:46.389Z,18.70
2023-05-08T10:28:43.090Z,18.70
2023-05-08T10:31:13.669Z,18.70
2023-05-08T10:33:41.655Z,18.70
2023-05-08T10:36:10.074Z,18.70
2023-05-08T10:38:37.815Z,18.70
2023-05-08T10:41:05.202Z,18.70
2023-05-08T10:43:33.417Z,18.60
2023-05-08T10:46:08.212Z,18.60
2023-05-08T10:48:43.688Z,18.70
2023-05-08T10:52:00.711Z,18.70
2023-05-08T10:54:47.246Z,18.90
2023-05-08T10:57:14.910Z,18.90
2023-05-08T10:59:46.775Z,18.90
2023-05-08T11:02:13.694Z,19.10
2023-05-08T11:04:40.780Z,19.10
2023-05-08T11:07:07.947Z,19.10
2023-05-08T11:09:53.448Z,19.10
2023-05-08T11:12:25.502Z,19.10
2023-05-08T11:15:06.589Z,19.10
2023-05-08T11:17:34.081Z,19.10
2023-05-08T11:20:05.799Z,19.00
2023-05-08T11:22:37.637Z,18.90
2023-05-08T11:25:09.967Z,19.00
2023-05-08T11:27:39.169Z,19.00
2023-05-08T11:30:25.555Z,19.00
2023-05-08T11:33:05.749Z,19.00
2023-05-08T11:35:49.280Z,19.00
2023-05-08T11:38:36.474Z,19.20
2023-05-08T11:41:07.337Z,19.30
2023-05-08T11:43:34.080Z,19.20
2023-05-08T11:46:01.999Z,19.20
2023-05-08T11:48:28.874Z,19.20
2023-05-08T11:50:55.888Z,19.20
2023-05-08T11:53:22.852Z,19.20
2023-05-08T11:55:50.295Z,19.20
2023-05-08T11:58:16.954Z,19.20
2023-05-08T12:00:45.828Z,19.20
2023-05-08T12:03:17.211Z,19.20
2023-05-08T12:05:44.474Z,19.20
2023-05-08T12:08:12.679Z,19.30
2023-05-08T12:10:53.177Z,19.40
2023-05-08T12:13:20.601Z,19.50
2023-05-08T12:15:48.879Z,19.40
2023-05-08T12:18:17.049Z,19.40
2023-05-08T12:20:44.618Z,19.30
2023-05-08T12:23:11.296Z,19.30
2023-05-08T12:25:39.226Z,19.40
2023-05-08T12:28:12.024Z,19.50
2023-05-08T12:30:38.818Z,19.60
2023-05-08T12:33:06.633Z,19.60
2023-05-08T12:35:33.658Z,19.50
2023-05-08T12:38:06.060Z,19.50
2023-05-08T12:40:36.265Z,19.40
2023-05-08T12:43:03.971Z,19.40
2023-05-08T12:45:34.417Z,19.40
2023-05-08T12:48:06.319Z,19.50
2023-05-08T12:50:38.226Z,19.50
2023-05-08T12:53:10.269Z,19.50
2023-05-08T12:55:39.525Z,19.50
2023-05-08T12:58:07.743Z,19.40
2023-05-08T13:00:48.743Z,19.40
2023-05-08T13:03:26.821Z,19.40
2023-05-08T13:05:55.417Z,19.40
2023-05-08T13:08:31.119Z,19.40
2023-05-08T13:10:59.166Z,19.40
2023-05-08T13:13:27.608Z,19.50
2023-05-08T13:15:55.263Z,19.50
2023-05-08T13:18:25.413Z,19.60
2023-05-08T13:20:52.109Z,19.60
2023-05-08T13:23:18.681Z,19.60
2023-05-08T13:25:45.333Z,19.60
2023-05-08T13:28:11.952Z,19.70
2023-05-08T13:30:40.478Z,19.60
2023-05-08T13:33:07.701Z,19.70
2023-05-08T13:35:35.165Z,19.70
2023-05-08T13:38:02.154Z,19.70
2023-05-08T13:40:29.705Z,19.70
2023-05-08T13:42:56.309Z,19.70
2023-05-08T13:45:23.005Z,19.70
2023-05-08T13:47:50.991Z,19.70
2023-05-08T13:50:19.485Z,19.70
2023-05-08T13:52:46.073Z,19.70
2023-05-08T13:55:22.768Z,19.70
2023-05-08T13:57:49.664Z,19.70
2023-05-08T14:00:17.096Z,19.70
2023-05-08T14:02:43.917Z,19.70
2023-05-08T14:05:10.927Z,19.80
2023-05-08T14:07:37.764Z,19.70
2023-05-08T14:10:04.935Z,19.80
2023-05-08T14:12:35.775Z,19.80
2023-05-08T14:15:03.977Z,19.80
2023-05-08T14:17:30.691Z,19.70
2023-05-08T14:19:57.301Z,19.70
2023-05-08T14:22:25.292Z,19.80
2023-05-08T14:24:52.906Z,19.70
2023-05-08T14:27:19.656Z,19.70
2023-05-08T14:29:46.394Z,19.70
2023-05-08T14:32:13.090Z,19.80
2023-05-08T14:34:39.697Z,19.70
2023-05-08T14:37:06.368Z,19.80
2023-05-08T14:39:32.968Z,19.90
2023-05-08T14:42:21.502Z,19.90
2023-05-08T14:44:48.382Z,19.90
2023-05-08T14:47:15.011Z,19.90
2023-05-08T14:49:41.610Z,20.00
2023-05-08T14:52:08.348Z,20.00
2023-05-08T14:54:35.275Z,20.00
2023-05-08T14:57:02.220Z,20.00
2023-05-08T14:59:28.922Z,19.90
2023-05-08T15:01:55.613Z,19.90
2023-05-08T15:04:22.308Z,19.90
2023-05-08T15:06:48.998Z,19.90
2023-05-08T15:09:26.553Z,19.90
2023-05-08T15:11:53.192Z,19.90
2023-05-08T15:14:19.865Z,19.80
2023-05-08T15:16:46.542Z,19.70
2023-05-08T15:19:13.267Z,19.70
2023-05-08T15:21:39.882Z,19.70
2023-05-08T15:24:06.956Z,19.60
2023-05-08T15:26:33.648Z,19.60
2023-05-08T15:29:00.668Z,19.60
2023-05-08T15:31:27.343Z,19.60
2023-05-08T15:33:53.987Z,19.60
2023-05-08T15:36:28.466Z,19.60
2023-05-08T15:38:55.250Z,19.60
2023-05-08T15:41:22.044Z,19.60
2023-05-08T15:43:48.633Z,19.60
2023-05-08T15:46:15.484Z,19.60
2023-05-08T15:48:42.270Z,19.60
2023-05-08T15:51:08.971Z,19.60
2023-05-08T15:53:35.780Z,19.50
2023-05-08T15:56:05.663Z,19.50
2023-05-08T15:58:32.414Z,19.50
2023-05-08T16:00:59.085Z,19.50
2023-05-08T16:03:25.852Z,19.50
2023-05-08T16:05:52.515Z,19.40
2023-05-08T16:08:19.170Z,19.40
2023-05-08T16:10:45.884Z,19.40
2023-05-08T16:13:12.605Z,19.30
2023-05-08T16:15:39.335Z,19.40
2023-05-08T16:18:06.729Z,19.40
2023-05-08T16:20:35.699Z,19.30
2023-05-08T16:23:02.961Z,19.30
2023-05-08T16:25:29.612Z,19.30
2023-05-08T16:27:56.312Z,19.20
2023-05-08T16:30:22.950Z,19.20
2023-05-08T16:32:49.647Z,19.20
2023-05-08T16:35:16.897Z,19.20
2023-05-08T16:37:43.877Z,19.20
2023-05-08T16:40:11.025Z,19.20
2023-05-08T16:42:37.811Z,19.10
2023-05-08T16:45:08.389Z,19.10
2023-05-08T16:47:35.452Z,19.10
2023-05-08T16:50:02.776Z,19.00
2023-05-08T16:52:29.412Z,19.00
2023-05-08T16:54:56.037Z,19.00
2023-05-08T16:57:22.745Z,19.00
2023-05-08T16:59:49.566Z,19.00
2023-05-08T17:02:18.913Z,19.00
2023-05-08T17:04:49.735Z,19.10
2023-05-08T17:07:17.203Z,19.00
2023-05-08T17:09:44.094Z,19.10
2023-05-08T17:12:10.906Z,19.00
2023-05-08T17:14:39.341Z,19.00
2023-05-08T17:17:06.494Z,19.00
2023-05-08T17:19:33.161Z,19.00
2023-05-08T17:22:00.035Z,19.00
2023-05-08T17:24:27.370Z,19.00
2023-05-08T17:26:54.049Z,19.00
2023-05-08T17:29:22.132Z,18.90
2023-05-08T17:31:48.792Z,19.00
2023-05-08T17:34:15.725Z,18.90
2023-05-08T17:36:43.368Z,18.90
2023-05-08T17:39:10.027Z,18.90
2023-05-08T17:41:36.708Z,18.90
2023-05-08T17:44:04.228Z,18.90
2023-05-08T17:46:30.870Z,18.90
2023-05-08T17:48:57.610Z,18.90
2023-05-08T17:51:24.767Z,18.90
2023-05-08T17:53:53.003Z,18.90
2023-05-08T17:56:21.143Z,18.90
2023-05-08T17:58:47.837Z,18.80
2023-05-08T18:01:14.744Z,18.90
2023-05-08T18:03:41.873Z,18.90
2023-05-08T18:06:08.620Z,18.80
2023-05-08T18:08:35.384Z,18.80
2023-05-08T18:11:02.053Z,18.80
2023-05-08T18:13:28.796Z,18.80
2023-05-08T18:15:55.562Z,18.80
2023-05-08T18:18:22.227Z,18.80
2023-05-08T18:20:48.895Z,18.70
2023-05-08T18:23:15.902Z,18.70
2023-05-08T18:25:42.771Z,18.70
2023-05-08T18:28:09.412Z,18.70
2023-05-08T18:30:38.074Z,18.70
2023-05-08T18:33:04.790Z,18.60
2023-05-08T18:35:31.658Z,18.60
2023-05-08T18:37:58.321Z,18.50
2023-05-08T18:40:24.967Z,18.50
2023-05-08T18:42:51.644Z,18.50
2023-05-08T18:45:18.404Z,18.50
2023-05-08T18:47:45.074Z,18.50
2023-05-08T18:50:12.121Z,18.40
2023-05-08T18:52:39.181Z,18.40
2023-05-08T18:55:06.588Z,18.40
2023-05-08T18:57:33.432Z,18.40
2023-05-08T19:00:00.148Z,18.30
2023-05-08T19:02:29.929Z,18.30
2023-05-08T19:04:56.653Z,18.30
2023-05-08T19:07:23.323Z,18.30
2023-05-08T19:09:50.071Z,18.30
2023-05-08T19:12:16.759Z,18.20
2023-05-08T19:14:43.542Z,18.20
2023-05-08T19:17:10.168Z,18.20
2023-05-08T19:19:36.796Z,18.20
2023-05-08T19:22:03.468Z,18.20
2023-05-08T19:24:30.821Z,18.20
2023-05-08T19:26:58.865Z,18.20
2023-05-08T19:29:25.606Z,18.10
2023-05-08T19:31:52.599Z,18.10
2023-05-08T19:34:19.389Z,18.10
2023-05-08T19:36:46.252Z,18.00
2023-05-08T19:39:13.690Z,18.10
2023-05-08T19:41:40.369Z,18.10
2023-05-08T19:44:07.051Z,18.10
2023-05-08T19:46:33.651Z,18.10
2023-05-08T19:49:00.405Z,18.10
2023-05-08T19:51:27.074Z,18.10
2023-05-08T19:53:53.679Z,18.10
2023-05-08T19:56:21.056Z,18.10
2023-05-08T19:58:47.700Z,18.10
2023-05-08T20:01:14.423Z,18.10
2023-05-08T20:03:41.205Z,18.10
2023-05-08T20:06:07.913Z,18.10
2023-05-08T20:08:34.582Z,18.10
2023-05-08T20:11:03.870Z,18.10
2023-05-08T20:13:30.488Z,18.20
2023-05-08T20:15:58.505Z,18.20
2023-05-08T20:18:25.658Z,18.20
2023-05-08T20:20:52.342Z,18.30
2023-05-08T20:23:19.169Z,18.30
2023-05-08T20:25:47.579Z,18.30
2023-05-08T20:28:22.170Z,18.30
2023-05-08T20:30:49.154Z,18.30
2023-05-08T20:33:15.920Z,18.20
2023-05-08T20:35:42.743Z,18.20
2023-05-08T20:38:09.454Z,18.20
2023-05-08T20:40:36.660Z,18.30
2023-05-08T20:43:03.306Z,18.30
2023-05-08T20:45:29.922Z,18.30
2023-05-08T20:47:56.857Z,18.40
2023-05-08T20:50:23.583Z,18.40
2023-05-08T20:52:50.448Z,18.40
2023-05-08T20:55:17.135Z,18.50
2023-05-08T20:57:43.865Z,18.50
2023-05-08T21:00:11.053Z,18.50
2023-05-08T21:02:40.114Z,18.50
2023-05-08T21:05:10.254Z,18.50
2023-05-08T21:07:37.064Z,18.50
2023-05-08T21:10:04.002Z,18.50
2023-05-08T21:12:30.606Z,18.50
2023-05-08T21:14:57.287Z,18.40
2023-05-08T21:17:23.963Z,18.40
2023-05-08T21:19:50.813Z,18.40
2023-05-08T21:22:17.570Z,18.40
2023-05-08T21:24:44.615Z,18.30
2023-05-08T21:27:11.258Z,18.40
2023-05-08T21:29:37.848Z,18.30
2023-05-08T21:32:04.717Z,18.30
2023-05-08T21:34:31.454Z,18.30
2023-05-08T21:36:58.108Z,18.30
2023-05-08T21:39:24.729Z,18.30
2023-05-08T21:41:51.352Z,18.30
2023-05-08T21:44:18.043Z,18.30
2023-05-08T21:46:44.801Z,18.20
2023-05-08T21:49:11.474Z,18.20
2023-05-08T21:51:38.145Z,18.20
2023-05-08T21:54:04.786Z,18.20
2023-05-08T21:56:31.411Z,18.20
2023-05-08T21:58:58.020Z,18.20
2023-05-08T22:01:24.699Z,18.10
2023-05-08T22:03:51.391Z,18.10
2023-05-08T22:06:18.088Z,18.10
2023-05-08T22:08:44.706Z,18.10
2023-05-08T22:11:11.387Z,18.10
2023-05-08T22:13:38.094Z,18.10
2023-05-08T22:16:05.317Z,18.10
2023-05-08T22:18:32.064Z,18.10
2023-05-08T22:20:58.703Z,18.20
2023-05-08T22:23:26.206Z,18.20
2023-05-08T22:25:52.854Z,18.20
2023-05-08T22:28:19.479Z,18.20
2023-05-08T22:30:46.320Z,18.30
2023-05-08T22:33:12.938Z,18.30
2023-05-08T22:35:39.627Z,18.30
2023-05-08T22:38:06.243Z,18.30
2023-05-08T22:40:33.934Z,18.30
2023-05-08T22:43:00.990Z,18.30
2023-05-08T22:45:27.953Z,18.30
2023-05-08T22:47:55.343Z,18.30
2023-05-08T22:50:22.109Z,18.30
2023-05-08T22:52:48.725Z,18.30
2023-05-08T22:55:16.097Z,18.20
2023-05-08T22:57:43.291Z,18.20
2023-05-08T23:00:10.499Z,18.20
2023-05-08T23:02:37.260Z,18.20
2023-05-08T23:05:04.323Z,18.20
2023-05-08T23:07:31.188Z,18.20
2023-05-08T23:09:57.868Z,18.20
2023-05-08T23:12:24.510Z,18.20
2023-05-08T23:14:52.065Z,18.20
2023-05-08T23:17:18.777Z,18.20
2023-05-08T23:19:47.140Z,18.20
2023-05-08T23:22:13.781Z,18.20
2023-05-08T23:24:40.430Z,18.20
2023-05-08T23:27:07.053Z,18.20
2023-05-08T23:29:33.685Z,18.30
2023-05-08T23:32:00.646Z,18.20
2023-05-08T23:34:27.389Z,18.10
2023-05-08T23:36:54.077Z,18.20
2023-05-08T23:39:20.688Z,18.20
2023-05-08T23:41:47.547Z,18.10
2023-05-08T23:44:15.181Z,18.10
2023-05-08T23:46:42.044Z,18.10
2023-05-08T23:49:08.725Z,18.00
2023-05-08T23:51:35.402Z,17.90
2023-05-08T23:54:02.156Z,18.00
2023-05-08T23:56:29.848Z,18.00
2023-05-08T23:58:56.865Z,17.90
